Time;durP1;ratioP1;P1;durP2;ratioP2;P2;SDS_P1;SDS_P2;PMS_P1;PMS_P2;Temp;Humidity;BMP_temperature;BMP_pressure;BME280_temperature;BME280_humidity;BME280_pressure;Samples;Min_cycle;Max_cycle;Signal;HPM_P1;HPM_P2
2022/12/04 00:01:53;;;;;;;26.05;13.25;;;1.00;99.90;;;;;;5130266;27;20119;-84
2022/12/04 00:04:19;;;;;;;27.85;13.40;;;0.90;99.90;;;;;;5098498;27;20031;-84
2022/12/04 00:06:45;;;;;;;26.88;13.88;;;0.90;99.90;;;;;;5079328;27;20034;-84
2022/12/04 00:09:11;;;;;;;29.33;13.95;;;0.90;99.90;;;;;;5096957;27;20145;-84
2022/12/04 00:11:37;;;;;;;33.70;15.20;;;0.90;99.90;;;;;;5080417;27;20038;-84
2022/12/04 00:14:03;;;;;;;28.40;12.90;;;0.90;99.90;;;;;;5130636;27;20126;-84
2022/12/04 00:16:29;;;;;;;30.27;13.15;;;0.90;99.90;;;;;;5113800;27;20213;-84
2022/12/04 00:18:55;;;;;;;27.55;14.48;;;0.90;99.90;;;;;;5130817;27;20074;-84
2022/12/04 00:21:23;;;;;;;32.88;13.95;;;0.90;99.90;;;;;;5114684;27;20039;-84
2022/12/04 00:23:49;;;;;;;28.10;13.90;;;0.90;99.90;;;;;;5113072;27;20039;-84
2022/12/04 00:26:21;;;;;;;26.38;13.43;;;0.90;99.90;;;;;;5131389;27;20091;-84
2022/12/04 00:28:48;;;;;;;27.58;14.65;;;0.80;99.90;;;;;;5130596;27;20042;-85
2022/12/04 00:31:16;;;;;;;38.78;16.35;;;0.80;99.90;;;;;;5112576;27;20053;-84
2022/12/04 00:33:43;;;;;;;27.88;14.50;;;0.90;99.90;;;;;;5114079;27;20041;-84
2022/12/04 00:36:11;;;;;;;29.23;14.13;;;1.50;99.90;;;;;;5113180;27;20057;-84
2022/12/04 00:38:37;;;;;;;29.17;15.93;;;0.90;99.90;;;;;;5131889;27;20386;-84
2022/12/04 00:41:04;;;;;;;31.33;14.85;;;0.90;99.90;;;;;;5148659;27;20049;-84
2022/12/04 00:43:30;;;;;;;34.70;15.30;;;0.90;99.90;;;;;;5130716;27;20046;-84
2022/12/04 00:45:56;;;;;;;28.13;14.55;;;0.90;99.90;;;;;;5130590;27;20079;-84
2022/12/04 00:48:22;;;;;;;31.67;14.20;;;0.90;99.90;;;;;;5113374;27;20038;-84
2022/12/04 00:50:48;;;;;;;30.08;15.93;;;0.90;99.90;;;;;;5113990;27;20385;-84
2022/12/04 00:53:14;;;;;;;37.00;15.43;;;0.90;99.90;;;;;;5112291;27;20065;-84
2022/12/04 00:55:41;;;;;;;33.65;15.63;;;0.90;99.90;;;;;;5113483;27;20215;-84
2022/12/04 00:58:07;;;;;;;32.78;15.50;;;0.80;99.90;;;;;;5129879;27;20047;-85
2022/12/04 01:00:38;;;;;;;34.47;16.73;;;0.70;99.90;;;;;;5130806;27;20078;-84
2022/12/04 01:03:05;;;;;;;32.78;16.20;;;0.70;99.90;;;;;;5130412;27;20464;-84
2022/12/04 01:05:31;;;;;;;34.67;16.10;;;0.60;99.90;;;;;;5095850;27;20047;-84
2022/12/04 01:07:56;;;;;;;33.45;16.13;;;0.60;99.90;;;;;;5096368;27;20043;-84
2022/12/04 01:10:23;;;;;;;34.45;15.32;;;0.50;99.90;;;;;;5129422;27;20050;-84
2022/12/04 01:12:49;;;;;;;37.40;16.08;;;0.40;99.90;;;;;;5096840;27;20168;-84
2022/12/04 01:15:15;;;;;;;32.70;15.00;;;0.40;99.90;;;;;;5112464;27;20038;-84
2022/12/04 01:17:41;;;;;;;39.83;15.75;;;0.40;99.90;;;;;;5130303;27;20051;-84
2022/12/04 01:20:07;;;;;;;40.63;17.23;;;0.30;99.90;;;;;;5095465;27;20066;-84
2022/12/04 01:22:32;;;;;;;41.33;18.45;;;0.30;99.90;;;;;;5129689;27;20394;-84
2022/12/04 01:24:58;;;;;;;34.28;16.45;;;0.20;99.90;;;;;;5130193;27;20054;-84
2022/12/04 01:27:24;;;;;;;38.92;18.02;;;0.20;99.90;;;;;;5111787;27;20840;-83
2022/12/04 01:29:49;;;;;;;38.83;17.00;;;0.20;99.90;;;;;;5112832;27;20491;-84
2022/12/04 01:32:15;;;;;;;38.75;16.83;;;0.20;99.90;;;;;;5095306;27;20048;-85
2022/12/04 01:34:41;;;;;;;39.38;16.55;;;0.10;99.90;;;;;;5096117;27;20091;-84
2022/12/04 01:37:07;;;;;;;38.20;17.38;;;0.10;99.90;;;;;;5128848;27;20420;-84
2022/12/04 01:39:35;;;;;;;37.60;17.50;;;0.10;99.90;;;;;;5147382;27;20323;-84
2022/12/04 01:42:01;;;;;;;40.47;17.55;;;0.20;99.90;;;;;;5147949;27;20505;-84
2022/12/04 01:44:29;;;;;;;36.58;18.60;;;0.10;99.90;;;;;;5147398;27;20038;-84
2022/12/04 01:46:57;;;;;;;39.35;17.65;;;0.20;99.90;;;;;;5130078;27;20401;-83
2022/12/04 01:49:30;;;;;;;38.35;16.17;;;0.20;99.90;;;;;;5128538;27;20043;-84
2022/12/04 01:52:06;;;;;;;38.03;17.63;;;0.20;99.90;;;;;;5129426;27;20125;-83
2022/12/04 01:54:39;;;;;;;37.53;17.02;;;0.20;99.90;;;;;;5111369;27;20094;-82
2022/12/04 01:57:26;;;;;;;34.95;15.63;;;0.30;99.90;;;;;;5128407;27;20038;-84
2022/12/04 01:59:58;;;;;;;37.58;15.70;;;0.30;99.90;;;;;;5111962;27;20046;-82
2022/12/04 02:02:30;;;;;;;36.75;17.17;;;0.30;99.90;;;;;;5146587;27;20052;-84
2022/12/04 02:04:56;;;;;;;36.38;16.35;;;0.40;99.90;;;;;;5128974;27;20046;-83
2022/12/04 02:07:22;;;;;;;34.20;16.30;;;0.40;99.90;;;;;;5128058;27;20035;-84
2022/12/04 02:09:52;;;;;;;39.53;18.20;;;0.40;99.90;;;;;;5128175;27;20050;-83
2022/12/04 02:12:47;;;;;;;36.33;16.48;;;0.50;99.90;;;;;;5129977;27;20603;-83
2022/12/04 02:15:28;;;;;;;40.15;17.58;;;0.50;99.90;;;;;;5124573;27;20078;-83
2022/12/04 02:18:19;;;;;;;37.00;17.25;;;0.50;99.90;;;;;;5111712;27;20047;-83
2022/12/04 02:20:56;;;;;;;37.10;17.50;;;0.50;99.90;;;;;;5148151;27;20038;-83
2022/12/04 02:23:21;;;;;;;39.65;18.10;;;0.60;99.90;;;;;;5128386;27;20038;-83
2022/12/04 02:25:59;;;;;;;36.13;17.42;;;0.60;99.90;;;;;;5146892;27;20042;-83
2022/12/04 02:28:32;;;;;;;39.40;16.83;;;0.60;99.90;;;;;;5128706;27;20064;-83
2022/12/04 02:31:01;;;;;;;36.58;18.17;;;0.60;99.90;;;;;;5128075;27;20089;-83
2022/12/04 02:33:33;;;;;;;37.80;15.88;;;0.60;99.90;;;;;;5111009;27;20043;-83
2022/12/04 02:36:07;;;;;;;29.95;13.65;;;0.60;99.90;;;;;;5146402;27;20129;-83
2022/12/04 02:38:45;;;;;;;37.17;17.08;;;0.60;99.90;;;;;;5128055;27;20103;-83
2022/12/04 02:41:49;;;;;;;36.22;16.15;;;0.60;99.90;;;;;;5146644;27;20038;-82
2022/12/04 02:44:20;;;;;;;;;;;0.60;99.90;;;;;;5025859;28;20045;-83
2022/12/04 02:46:50;;;;;;;45.75;16.63;;;0.60;99.90;;;;;;5130717;27;20013;-83
2022/12/04 02:49:26;;;;;;;39.40;18.50;;;0.60;99.90;;;;;;5128508;27;20081;-83
2022/12/04 02:51:54;;;;;;;40.25;19.20;;;0.60;99.90;;;;;;5127857;27;20038;-82
2022/12/04 02:54:31;;;;;;;45.92;20.10;;;0.60;99.90;;;;;;5126528;27;20055;-83
2022/12/04 02:56:58;;;;;;;38.05;19.58;;;0.60;99.90;;;;;;5127361;27;20061;-83
2022/12/04 02:59:55;;;;;;;42.00;19.10;;;1.20;99.90;;;;;;5111263;27;20031;-83
2022/12/04 03:02:32;;;;;;;35.50;18.73;;;0.60;99.90;;;;;;5090751;27;20097;-83
2022/12/04 03:05:02;;;;;;;42.30;19.58;;;0.60;99.90;;;;;;5127929;27;20482;-83
2022/12/04 03:07:50;;;;;;;42.67;20.90;;;0.60;99.90;;;;;;5127844;27;20049;-83
2022/12/04 03:10:21;;;;;;;43.92;19.50;;;0.60;99.90;;;;;;5127159;27;20047;-83
2022/12/04 03:12:53;;;;;;;43.00;20.98;;;0.60;99.90;;;;;;5127679;27;20066;-83
2022/12/04 03:15:26;;;;;;;43.83;21.48;;;0.60;99.90;;;;;;5128173;27;20599;-83
2022/12/04 03:18:02;;;;;;;44.38;21.05;;;0.60;99.90;;;;;;5127746;27;20049;-84
2022/12/04 03:20:31;;;;;;;45.50;22.33;;;0.90;99.90;;;;;;5146125;27;20075;-83
2022/12/04 03:23:02;;;;;;;49.22;22.85;;;0.60;99.90;;;;;;5110029;27;20042;-83
2022/12/04 03:25:35;;;;;;;45.78;22.98;;;0.60;99.90;;;;;;5127780;27;20039;-83
2022/12/04 03:28:06;;;;;;;43.22;22.35;;;0.60;99.90;;;;;;5146271;27;20054;-83
2022/12/04 03:30:43;;;;;;;43.33;21.70;;;0.60;99.90;;;;;;5127762;27;20483;-83
2022/12/04 03:33:19;;;;;;;45.05;21.63;;;0.60;99.90;;;;;;5128563;27;20385;-83
2022/12/04 03:35:58;;;;;;;45.88;22.30;;;0.60;99.90;;;;;;5126980;27;20571;-82
2022/12/04 03:38:43;;;;;;;43.30;20.65;;;0.60;99.90;;;;;;5146146;27;20045;-83
2022/12/04 03:41:23;;;;;;;48.95;21.80;;;0.60;99.90;;;;;;5110745;27;20045;-83
2022/12/04 03:43:55;;;;;;;50.30;23.05;;;0.60;99.90;;;;;;5127599;27;20043;-83
2022/12/04 03:46:28;;;;;;;46.42;22.55;;;0.50;99.90;;;;;;5146725;27;20496;-83
2022/12/04 03:49:19;;;;;;;44.80;22.17;;;0.50;99.90;;;;;;5145848;27;20049;-83
2022/12/04 03:51:51;;;;;;;48.13;22.13;;;0.60;99.90;;;;;;5130925;27;20405;-83
2022/12/04 03:54:22;;;;;;;49.38;24.38;;;0.50;99.90;;;;;;5127449;27;20050;-84
2022/12/04 03:56:53;;;;;;;47.65;22.67;;;0.50;99.90;;;;;;5127472;27;20099;-83
2022/12/04 03:59:27;;;;;;;49.90;22.23;;;0.60;99.90;;;;;;5111409;27;20107;-84
2022/12/04 04:01:56;;;;;;;44.72;22.52;;;0.60;99.90;;;;;;5145611;27;20039;-83
2022/12/04 04:04:27;;;;;;;45.70;22.63;;;0.60;99.90;;;;;;5127269;27;20087;-83
2022/12/04 04:06:58;;;;;;;45.85;22.30;;;0.60;99.90;;;;;;5114038;27;20049;-83
2022/12/04 04:09:27;;;;;;;46.70;23.00;;;0.50;99.90;;;;;;5149788;27;20038;-83
2022/12/04 04:12:02;;;;;;;49.90;24.40;;;0.60;99.90;;;;;;5131349;27;20316;-83
2022/12/04 04:24:13;;;;;;;40.37;20.30;;;0.50;99.90;;;;;;5106565;27;20130;-83
2022/12/04 04:26:14;;;;;;;45.97;22.13;;;0.50;99.90;;;;;;5130689;27;20502;-83
2022/12/04 04:28:41;;;;;;;44.15;23.00;;;0.50;99.90;;;;;;5096828;27;20088;-83
2022/12/04 04:31:19;;;;;;;49.78;22.85;;;0.50;99.90;;;;;;5130178;27;20553;-83
2022/12/04 04:34:19;;;;;;;45.78;23.15;;;0.50;99.90;;;;;;5114039;27;20088;-83
2022/12/04 04:36:44;;;;;;;46.25;23.52;;;0.50;99.90;;;;;;5072225;27;20473;-83
2022/12/04 04:39:30;;;;;;;46.22;22.27;;;0.50;99.90;;;;;;5112814;27;20129;-83
2022/12/04 04:42:18;;;;;;;45.70;24.42;;;0.50;99.90;;;;;;5131261;27;20619;-84
2022/12/04 04:45:04;;;;;;;45.05;23.60;;;0.50;99.90;;;;;;5130235;27;20043;-83
2022/12/04 04:47:33;;;;;;;45.90;23.30;;;0.40;99.90;;;;;;5130491;27;20162;-84
2022/12/04 04:50:03;;;;;;;52.35;21.52;;;0.40;99.90;;;;;;5113672;27;20117;-83
2022/12/04 04:52:30;;;;;;;48.17;23.52;;;1.00;99.90;;;;;;5129682;27;20039;-83
2022/12/04 04:54:58;;;;;;;51.38;25.15;;;0.40;99.90;;;;;;5113020;27;20090;-83
2022/12/04 04:57:34;;;;;;;48.33;23.45;;;0.40;99.90;;;;;;5129284;27;20103;-83
2022/12/04 05:00:04;;;;;;;49.13;23.45;;;0.50;99.90;;;;;;5130849;27;20486;-83
2022/12/04 05:02:32;;;;;;;48.33;23.80;;;0.40;99.90;;;;;;5129628;27;20046;-83
2022/12/04 05:04:57;;;;;;;46.85;22.75;;;0.50;99.90;;;;;;5129900;27;20367;-83
2022/12/04 05:07:23;;;;;;;52.58;26.05;;;0.50;99.90;;;;;;5130224;27;20071;-83
2022/12/04 05:09:49;;;;;;;48.40;23.30;;;0.50;99.90;;;;;;5095797;27;20095;-83
2022/12/04 05:12:14;;;;;;;53.75;25.55;;;0.40;99.90;;;;;;5096395;27;20055;-84
2022/12/04 05:14:40;;;;;;;55.85;26.05;;;0.50;99.90;;;;;;5112385;27;20039;-83
2022/12/04 05:17:06;;;;;;;50.03;24.65;;;0.50;99.90;;;;;;5095026;27;20522;-83
2022/12/04 05:22:18;;;;;;;46.15;21.50;;;0.50;99.90;;;;;;5129160;27;20054;-83
2022/12/04 05:24:43;;;;;;;49.13;24.67;;;0.50;99.90;;;;;;5112833;27;20058;-84
2022/12/04 05:27:09;;;;;;;47.72;23.92;;;0.50;99.90;;;;;;5128724;27;20043;-83
2022/12/04 05:29:35;;;;;;;49.97;25.02;;;0.50;99.90;;;;;;5095680;27;20086;-83
2022/12/04 05:32:01;;;;;;;46.88;24.80;;;0.50;99.90;;;;;;5094841;27;20065;-84
2022/12/04 05:34:26;;;;;;;46.45;23.45;;;0.50;99.90;;;;;;5112041;27;20054;-83
2022/12/04 05:36:52;;;;;;;46.60;22.48;;;0.50;99.90;;;;;;5111957;27;20050;-83
2022/12/04 05:39:17;;;;;;;47.15;23.35;;;0.60;99.90;;;;;;5111315;27;20048;-83
2022/12/04 05:41:43;;;;;;;48.58;23.70;;;0.60;99.90;;;;;;5130041;27;20769;-83
2022/12/04 05:44:09;;;;;;;52.35;25.73;;;0.60;99.90;;;;;;5147308;27;20098;-83
2022/12/04 05:46:35;;;;;;;48.95;24.35;;;0.60;99.90;;;;;;5148242;27;20070;-84
2022/12/04 05:49:00;;;;;;;45.97;23.20;;;0.60;99.90;;;;;;5111328;27;20478;-83
2022/12/04 05:51:26;;;;;;;45.40;23.50;;;0.60;99.90;;;;;;5129217;27;20494;-83
2022/12/04 05:53:52;;;;;;;44.20;23.05;;;0.60;99.90;;;;;;5094504;27;20447;-83
2022/12/04 05:56:17;;;;;;;41.67;22.10;;;0.60;99.90;;;;;;5128376;27;20099;-83
2022/12/04 05:58:43;;;;;;;46.65;24.10;;;0.60;99.90;;;;;;5112095;27;20405;-84
2022/12/04 06:01:12;;;;;;;50.13;23.70;;;0.70;99.90;;;;;;5110832;27;20137;-83
2022/12/04 06:03:38;;;;;;;48.45;23.58;;;0.70;99.90;;;;;;5129805;27;20400;-83
2022/12/04 06:06:03;;;;;;;50.08;23.60;;;1.70;99.90;;;;;;5146190;27;20042;-83
2022/12/04 06:08:30;;;;;;;51.40;24.70;;;0.70;99.90;;;;;;5129010;27;20107;-83
2022/12/04 06:10:56;;;;;;;48.13;22.35;;;1.10;99.90;;;;;;5128406;27;20050;-83
2022/12/04 06:13:22;;;;;;;48.38;22.67;;;0.70;99.90;;;;;;5128321;27;20053;-83
2022/12/04 06:15:47;;;;;;;51.13;25.27;;;0.70;99.90;;;;;;5128726;27;20091;-83
2022/12/04 06:18:13;;;;;;;47.17;23.35;;;0.70;99.90;;;;;;5127627;27;20035;-83
2022/12/04 06:20:39;;;;;;;48.17;24.45;;;0.80;99.90;;;;;;5111985;27;20042;-83
2022/12/04 06:23:04;;;;;;;47.83;23.20;;;0.80;99.90;;;;;;5127456;27;20042;-83
2022/12/04 06:25:30;;;;;;;47.30;23.08;;;0.80;99.90;;;;;;5111549;27;20095;-83
2022/12/04 06:27:56;;;;;;;48.85;24.17;;;0.80;99.90;;;;;;5110956;27;20104;-83
2022/12/04 06:30:21;;;;;;;48.28;23.30;;;0.80;99.90;;;;;;5111609;27;20183;-82
2022/12/04 06:32:47;;;;;;;46.78;23.98;;;0.80;99.90;;;;;;5112225;27;20039;-82
2022/12/04 06:35:13;;;;;;;50.25;23.05;;;0.80;99.90;;;;;;5077738;27;20050;-83
2022/12/04 06:37:38;;;;;;;46.80;24.83;;;0.80;99.90;;;;;;5113247;27;20129;-82
2022/12/04 06:40:05;;;;;;;48.67;23.48;;;0.90;99.90;;;;;;5110555;27;20447;-83
2022/12/04 06:42:31;;;;;;;43.58;21.83;;;0.90;99.90;;;;;;5111376;27;20078;-82
2022/12/04 06:44:59;;;;;;;45.45;22.90;;;0.90;99.90;;;;;;5093607;27;20454;-84
2022/12/04 06:47:25;;;;;;;49.28;23.50;;;0.90;99.90;;;;;;5094301;27;20080;-85
2022/12/04 06:49:54;;;;;;;45.17;23.27;;;1.00;99.90;;;;;;5128051;27;20092;-84
2022/12/04 06:52:20;;;;;;;49.20;22.40;;;0.90;99.90;;;;;;5109869;27;20043;-85
2022/12/04 06:54:46;;;;;;;42.72;23.38;;;0.90;99.90;;;;;;5111108;27;20047;-85
2022/12/04 06:57:11;;;;;;;46.25;22.70;;;0.90;99.90;;;;;;5126975;27;20050;-85
2022/12/04 06:59:37;;;;;;;45.50;23.25;;;0.90;99.90;;;;;;5147494;27;20031;-86
2022/12/04 07:02:03;;;;;;;43.75;22.67;;;1.30;99.90;;;;;;5126664;27;20057;-84
2022/12/04 07:04:28;;;;;;;46.63;23.38;;;0.90;99.90;;;;;;5111286;27;20042;-85
2022/12/04 07:06:54;;;;;;;46.88;22.27;;;0.90;99.90;;;;;;5127814;27;20039;-86
2022/12/04 07:09:20;;;;;;;55.65;24.17;;;0.90;99.90;;;;;;5110355;27;20057;-84
2022/12/04 07:11:45;;;;;;;47.20;23.98;;;0.90;99.90;;;;;;5111105;27;20188;-82
2022/12/04 07:14:12;;;;;;;49.90;23.23;;;0.90;99.90;;;;;;5126630;27;20043;-82
2022/12/04 07:16:39;;;;;;;43.88;23.65;;;0.90;99.90;;;;;;5128913;27;20039;-85
2022/12/04 07:19:05;;;;;;;47.20;22.92;;;2.30;99.90;;;;;;5126410;27;20039;-84
2022/12/04 07:21:31;;;;;;;47.17;23.70;;;0.90;99.90;;;;;;5146439;27;20093;-83
2022/12/04 07:23:58;;;;;;;49.42;23.85;;;1.00;99.90;;;;;;5127240;27;20039;-83
2022/12/04 07:26:26;;;;;;;49.88;23.77;;;1.00;99.90;;;;;;5110243;27;20439;-83
2022/12/04 07:28:52;;;;;;;47.08;23.15;;;1.00;99.90;;;;;;5128302;27;20042;-83
2022/12/04 07:31:20;;;;;;;49.60;23.75;;;1.00;99.90;;;;;;5092844;27;20450;-83
2022/12/04 07:33:47;;;;;;;49.03;22.60;;;1.00;99.90;;;;;;5111645;27;20142;-83
2022/12/04 07:36:18;;;;;;;46.50;23.52;;;1.00;99.90;;;;;;5126757;27;20103;-83
2022/12/04 07:38:44;;;;;;;46.38;23.30;;;1.00;99.90;;;;;;5128249;27;20118;-83
2022/12/04 07:41:12;;;;;;;49.65;23.48;;;1.00;99.90;;;;;;5096058;27;20043;-82
2022/12/04 07:43:38;;;;;;;52.95;22.83;;;1.00;99.90;;;;;;5131785;27;20379;-84
2022/12/04 07:46:06;;;;;;;50.83;24.88;;;1.00;99.90;;;;;;5114861;27;20038;-84
2022/12/04 07:48:32;;;;;;;49.47;23.38;;;1.00;99.90;;;;;;5130226;27;20043;-83
2022/12/04 07:51:05;;;;;;;47.08;23.23;;;1.10;99.90;;;;;;5116016;27;20042;-85
2022/12/04 07:53:32;;;;;;;40.95;20.95;;;1.10;99.90;;;;;;5113445;27;20058;-84
2022/12/04 07:55:57;;;;;;;47.05;21.15;;;1.10;99.90;;;;;;5131506;27;20046;-84
2022/12/04 07:58:23;;;;;;;41.13;21.90;;;1.10;99.90;;;;;;5114348;27;20042;-83
2022/12/04 08:00:49;;;;;;;44.67;22.30;;;1.10;99.90;;;;;;5130614;27;20450;-83
2022/12/04 08:03:14;;;;;;;45.80;23.58;;;1.10;99.90;;;;;;5115056;27;20046;-85
2022/12/04 08:05:40;;;;;;;51.63;23.65;;;1.20;99.90;;;;;;5079970;27;20146;-85
2022/12/04 08:08:05;;;;;;;47.30;23.95;;;1.10;99.90;;;;;;5098604;27;20049;-84
2022/12/04 08:10:31;;;;;;;47.28;23.90;;;1.20;99.90;;;;;;5130228;27;20103;-85
2022/12/04 08:12:57;;;;;;;41.90;22.52;;;1.10;99.90;;;;;;5131807;27;20354;-85
2022/12/04 08:15:23;;;;;;;48.30;25.48;;;1.20;99.90;;;;;;5130946;27;20092;-86
2022/12/04 08:17:48;;;;;;;46.83;22.23;;;1.20;99.90;;;;;;5096629;27;20085;-84
2022/12/04 08:20:14;;;;;;;42.75;21.75;;;2.10;99.90;;;;;;5113863;27;20066;-86
2022/12/04 08:22:40;;;;;;;45.38;21.63;;;1.20;99.90;;;;;;5112955;27;20047;-85
2022/12/04 08:25:05;;;;;;;46.03;22.85;;;1.30;99.90;;;;;;5097756;27;20046;-86
2022/12/04 08:27:31;;;;;;;43.83;22.90;;;1.30;99.90;;;;;;5078581;27;20069;-85
2022/12/04 08:29:57;;;;;;;45.13;22.83;;;1.30;99.90;;;;;;5131246;27;20042;-84
2022/12/04 08:32:22;;;;;;;44.55;22.58;;;1.70;99.90;;;;;;5112416;27;20039;-84
2022/12/04 08:34:50;;;;;;;50.85;22.88;;;1.40;99.90;;;;;;5097420;27;20446;-85
2022/12/04 08:37:17;;;;;;;47.13;22.70;;;1.40;99.90;;;;;;5130308;27;20099;-84
2022/12/04 08:39:42;;;;;;;44.42;22.40;;;1.40;99.90;;;;;;5112040;27;20545;-84
2022/12/04 08:42:08;;;;;;;40.45;22.50;;;1.40;99.90;;;;;;5114207;27;20050;-84
2022/12/04 08:44:33;;;;;;;43.55;22.10;;;1.80;99.90;;;;;;5129343;27;20038;-84
2022/12/04 08:46:59;;;;;;;40.55;20.95;;;1.40;99.90;;;;;;5097193;27;20482;-85
2022/12/04 08:49:25;;;;;;;43.13;23.02;;;1.50;99.90;;;;;;5112020;27;20406;-86
2022/12/04 08:51:50;;;;;;;47.03;21.92;;;1.50;99.90;;;;;;5111821;27;20085;-85
2022/12/04 08:54:16;;;;;;;40.25;21.30;;;1.50;99.90;;;;;;5095556;27;20050;-87
2022/12/04 08:56:43;;;;;;;36.30;20.50;;;1.50;99.90;;;;;;5111952;27;20494;-88
2022/12/04 08:59:11;;;;;;;40.50;22.05;;;1.50;99.90;;;;;;5096621;27;20096;-85
2022/12/04 09:01:36;;;;;;;38.78;20.17;;;1.60;99.90;;;;;;5111240;27;20043;-85
2022/12/04 09:04:02;;;;;;;41.28;21.92;;;1.60;99.90;;;;;;5130938;27;20160;-85
2022/12/04 09:06:28;;;;;;;38.78;19.45;;;2.10;99.90;;;;;;5111630;27;20042;-87
2022/12/04 09:08:55;;;;;;;41.63;21.00;;;1.60;99.90;;;;;;5129515;27;20129;-84
2022/12/04 09:11:23;;;;;;;38.83;20.50;;;1.70;99.90;;;;;;5129093;27;20039;-85
2022/12/04 09:13:51;;;;;;;37.67;19.55;;;1.70;99.90;;;;;;5128778;27;20326;-83
2022/12/04 09:16:19;;;;;;;41.80;20.70;;;1.70;99.90;;;;;;5130663;27;20130;-84
2022/12/04 09:18:45;;;;;;;40.33;19.85;;;1.70;99.90;;;;;;5127857;27;20042;-83
2022/12/04 09:21:12;;;;;;;38.03;20.08;;;1.70;99.90;;;;;;5113578;27;20038;-84
2022/12/04 09:23:39;;;;;;;37.08;19.88;;;1.80;99.90;;;;;;5111373;27;20081;-83
2022/12/04 09:26:14;;;;;;;37.45;20.23;;;1.80;99.90;;;;;;5112502;27;20038;-84
2022/12/04 09:28:39;;;;;;;38.70;20.52;;;1.80;99.90;;;;;;5112216;27;20039;-84
2022/12/04 09:31:05;;;;;;;40.80;21.15;;;1.80;99.90;;;;;;5128283;27;20102;-83
2022/12/04 09:33:32;;;;;;;39.60;19.33;;;1.80;99.90;;;;;;5129668;27;20038;-83
2022/12/04 09:35:58;;;;;;;40.38;20.83;;;1.90;99.90;;;;;;5127470;27;20053;-85
2022/12/04 09:38:26;;;;;;;34.70;18.25;;;1.90;99.90;;;;;;5129328;27;20075;-84
2022/12/04 09:41:04;;;;;;;33.85;17.98;;;2.00;99.90;;;;;;5126382;27;20047;-85
2022/12/04 09:43:45;;;;;;;32.20;17.85;;;2.00;99.90;;;;;;5111347;27;20517;-84
2022/12/04 09:46:22;;;;;;;27.77;15.45;;;2.10;99.90;;;;;;5129831;27;20535;-85
2022/12/04 09:48:49;;;;;;;30.42;16.50;;;2.10;99.90;;;;;;5110616;27;20071;-86
2022/12/04 09:51:20;;;;;;;26.90;15.05;;;2.20;99.90;;;;;;5129663;27;20117;-85
2022/12/04 09:53:55;;;;;;;27.15;14.90;;;2.30;99.90;;;;;;5127267;27;20453;-84
2022/12/04 09:56:23;;;;;;;27.77;15.48;;;3.10;99.90;;;;;;5111434;27;20050;-85
2022/12/04 09:59:12;;;;;;;27.95;14.82;;;2.60;99.90;;;;;;5128860;27;20429;-85
2022/12/04 10:01:46;;;;;;;27.88;14.75;;;3.40;99.90;;;;;;5110167;27;20084;-84
2022/12/04 10:04:13;;;;;;;37.55;16.35;;;2.50;99.90;;;;;;5129926;27;20377;-85
2022/12/04 10:07:10;;;;;;;28.40;16.33;;;2.60;99.90;;;;;;5127099;27;20486;-85
2022/12/04 10:09:51;;;;;;;31.60;16.00;;;2.60;99.90;;;;;;5110464;27;20035;-85
2022/12/04 10:12:41;;;;;;;32.42;16.25;;;2.60;99.90;;;;;;5112323;27;20050;-85
2022/12/04 10:15:31;;;;;;;28.13;15.25;;;2.60;99.90;;;;;;5109887;27;20134;-84
2022/12/04 10:18:21;;;;;;;31.50;16.05;;;2.70;99.90;;;;;;5110776;27;20498;-84
2022/12/04 10:20:58;;;;;;;27.13;14.73;;;2.70;99.90;;;;;;5128986;27;20051;-85
2022/12/04 10:23:35;;;;;;;25.65;13.32;;;2.70;99.90;;;;;;5126539;27;20133;-84
2022/12/04 10:26:04;;;;;;;26.50;13.80;;;2.70;99.90;;;;;;5111268;27;20050;-83
2022/12/04 10:28:35;;;;;;;24.55;13.27;;;2.70;99.90;;;;;;5128235;27;20053;-83
2022/12/04 10:31:03;;;;;;;25.00;14.52;;;2.70;99.90;;;;;;5110318;27;20058;-84
2022/12/04 10:33:41;;;;;;;28.17;14.18;;;2.70;99.90;;;;;;5111908;27;20508;-83
2022/12/04 10:36:14;;;;;;;26.80;13.73;;;2.80;99.90;;;;;;5109174;27;20346;-84
2022/12/04 10:38:53;;;;;;;25.10;13.38;;;2.80;99.90;;;;;;5128633;27;20034;-85
2022/12/04 10:41:41;;;;;;;22.00;12.95;;;2.80;99.90;;;;;;5127619;27;20042;-86
2022/12/04 10:44:13;;;;;;;26.33;13.80;;;2.80;99.90;;;;;;5109375;27;20078;-86
2022/12/04 10:46:40;;;;;;;21.33;12.43;;;2.80;99.90;;;;;;5129223;27;20042;-85
2022/12/04 10:49:27;;;;;;;24.40;12.10;;;2.80;99.90;;;;;;5126023;27;20034;-83
2022/12/04 10:51:53;;;;;;;21.42;11.73;;;2.90;99.90;;;;;;5110875;27;20469;-83
2022/12/04 10:54:43;;;;;;;20.88;11.57;;;2.90;99.90;;;;;;5127687;27;20518;-83
2022/12/04 10:57:12;;;;;;;16.63;9.57;;;4.10;99.90;;;;;;5126429;27;20049;-83
2022/12/04 10:59:55;;;;;;;19.45;10.73;;;2.90;99.90;;;;;;5111600;27;20031;-85
2022/12/04 11:02:31;;;;;;;22.20;10.90;;;3.00;99.90;;;;;;5109688;27;20039;-84
2022/12/04 11:05:02;;;;;;;18.85;11.25;;;3.00;99.90;;;;;;5127822;27;20042;-84
2022/12/04 11:07:45;;;;;;;21.30;10.73;;;3.00;99.90;;;;;;5111322;27;20081;-84
2022/12/04 11:10:33;;;;;;;19.60;11.73;;;3.00;99.90;;;;;;5126191;27;20199;-84
2022/12/04 11:13:04;;;;;;;21.85;11.85;;;3.00;99.90;;;;;;5129162;27;20047;-84
2022/12/04 11:15:33;;;;;;;18.83;10.52;;;3.00;99.90;;;;;;5128599;27;20027;-83
2022/12/04 11:18:15;;;;;;;22.77;11.57;;;3.00;99.90;;;;;;5131385;27;20039;-84
2022/12/04 11:20:49;;;;;;;23.42;12.32;;;3.00;99.90;;;;;;5133233;27;20082;-84
2022/12/04 11:23:16;;;;;;;20.95;12.60;;;3.00;99.90;;;;;;5130862;27;20469;-84
2022/12/04 11:25:57;;;;;;;19.70;10.32;;;3.00;99.90;;;;;;5132871;27;20542;-85
2022/12/04 11:28:29;;;;;;;21.42;10.68;;;3.00;99.90;;;;;;5130369;27;20126;-83
2022/12/04 11:30:57;;;;;;;14.10;7.93;;;3.00;99.90;;;;;;5114705;27;20042;-84
2022/12/04 11:33:37;;;;;;;19.88;11.10;;;4.20;99.90;;;;;;5115098;27;20039;-83
2022/12/04 11:36:14;;;;;;;21.60;11.07;;;3.00;99.90;;;;;;5130522;27;20039;-84
2022/12/04 11:38:40;;;;;;;18.77;10.65;;;3.00;99.90;;;;;;5132909;27;20050;-82
2022/12/04 11:41:20;;;;;;;20.35;11.20;;;3.10;99.90;;;;;;5079830;27;20039;-82
2022/12/04 11:43:49;;;;;;;19.25;11.70;;;3.00;99.90;;;;;;5131526;27;20203;-82
2022/12/04 11:46:21;;;;;;;21.42;11.38;;;3.00;99.90;;;;;;5132364;27;20043;-83
2022/12/04 11:48:46;;;;;;;15.15;8.52;;;3.00;99.90;;;;;;5112833;27;20043;-83
2022/12/04 11:51:54;;;;;;;21.00;11.63;;;4.00;99.90;;;;;;5132857;27;20050;-83
2022/12/04 11:54:46;;;;;;;19.35;10.70;;;3.00;99.90;;;;;;5131079;27;20054;-82
2022/12/04 11:57:23;;;;;;;23.63;12.77;;;3.00;99.90;;;;;;5085179;27;20051;-83
2022/12/04 12:00:11;;;;;;;20.10;11.35;;;3.00;99.90;;;;;;5132029;27;20043;-81
2022/12/04 12:03:03;;;;;;;22.13;12.07;;;3.00;99.90;;;;;;5112719;27;20046;-82
2022/12/04 12:05:32;;;;;;;21.65;12.10;;;3.00;99.90;;;;;;5113915;27;20051;-82
2022/12/04 12:08:27;;;;;;;25.63;12.45;;;2.90;99.90;;;;;;5131957;27;20035;-82
2022/12/04 12:11:10;;;;;;;23.67;12.75;;;3.90;99.90;;;;;;5060640;27;20079;-81
2022/12/04 12:14:04;;;;;;;20.90;10.63;;;3.60;99.90;;;;;;5113754;27;20052;-81
2022/12/04 12:16:41;;;;;;;;;;;3.00;99.90;;;;;;5132184;27;20047;-81
2022/12/04 12:19:22;;;;;;;19.85;10.77;;;3.00;99.90;;;;;;5128742;27;20231;-82
2022/12/04 12:22:06;;;;;;;20.25;11.73;;;3.00;99.90;;;;;;5114715;27;20576;-81
2022/12/04 12:24:41;;;;;;;20.02;12.02;;;3.00;99.90;;;;;;5130862;27;20042;-82
2022/12/04 12:27:44;;;;;;;18.65;10.93;;;3.00;99.90;;;;;;5112069;27;20050;-82
2022/12/04 12:30:18;;;;;;;22.75;9.88;;;3.00;99.90;;;;;;5131794;27;20485;-82
2022/12/04 12:33:01;;;;;;;23.55;12.73;;;3.00;99.90;;;;;;5129871;27;20062;-82
2022/12/04 12:36:04;;;;;;;22.20;12.77;;;3.00;99.90;;;;;;5130048;27;20047;-81
2022/12/04 12:38:36;;;;;;;25.40;13.38;;;3.00;99.90;;;;;;5131290;27;20105;-82
2022/12/04 12:41:11;;;;;;;22.90;12.43;;;3.00;99.90;;;;;;5128998;27;20038;-83
2022/12/04 12:43:38;;;;;;;19.63;11.25;;;3.00;99.90;;;;;;5130399;27;20050;-82
2022/12/04 12:46:36;;;;;;;20.20;11.93;;;3.10;99.90;;;;;;5113141;27;20043;-82
2022/12/04 12:49:11;;;;;;;23.67;11.82;;;3.10;99.90;;;;;;5111535;27;20467;-82
2022/12/04 12:51:41;;;;;;;24.30;12.65;;;3.10;99.90;;;;;;5131277;27;20035;-82
2022/12/04 12:54:42;;;;;;;24.27;12.13;;;3.10;99.90;;;;;;5129285;27;20397;-82
2022/12/04 12:57:25;;;;;;;21.55;12.80;;;3.10;99.90;;;;;;5111644;27;20051;-82
2022/12/04 13:00:21;;;;;;;22.52;12.20;;;3.10;99.90;;;;;;5131771;27;20401;-82
2022/12/04 13:02:59;;;;;;;21.70;12.15;;;3.10;99.90;;;;;;5127293;27;20043;-82
2022/12/04 13:05:39;;;;;;;24.02;13.65;;;3.10;99.90;;;;;;5112422;27;20134;-82
2022/12/04 13:08:15;;;;;;;19.25;11.63;;;3.10;99.90;;;;;;5130684;27;20480;-82
2022/12/04 13:10:53;;;;;;;25.02;12.38;;;3.10;99.90;;;;;;5110987;27;20054;-84
2022/12/04 13:13:24;;;;;;;21.85;12.30;;;3.20;99.90;;;;;;5113822;27;20125;-82